createdAt,value
2023-03-26T00:04:05.248Z,2.95
2023-03-26T00:09:26.899Z,2.45
2023-03-26T00:14:48.028Z,2.50
2023-03-26T00:20:09.831Z,2.35
2023-03-26T00:25:31.336Z,2.63
2023-03-26T00:31:02.709Z,3.13
2023-03-26T00:36:26.046Z,2.95
2023-03-26T00:41:47.448Z,2.70
2023-03-26T00:47:08.860Z,2.60
2023-03-26T00:52:30.746Z,2.90
2023-03-26T00:57:51.869Z,2.50
2023-03-26T01:03:27.717Z,2.15
2023-03-26T01:08:51.665Z,2.40
2023-03-26T01:14:18.973Z,2.22
2023-03-26T01:20:05.814Z,2.22
2023-03-26T01:25:34.469Z,2.70
2023-03-26T01:31:24.251Z,2.58
2023-03-26T01:37:25.366Z,3.45
2023-03-26T01:43:22.494Z,2.38
2023-03-26T01:48:46.972Z,2.63
2023-03-26T01:54:17.899Z,2.03
2023-03-26T02:00:08.339Z,2.38
2023-03-26T02:05:44.293Z,2.30
2023-03-26T02:11:16.498Z,2.10
2023-03-26T02:16:38.129Z,2.15
2023-03-26T02:21:59.722Z,2.08
2023-03-26T02:27:22.475Z,2.00
2023-03-26T02:32:43.870Z,2.17
2023-03-26T02:38:05.841Z,1.85
2023-03-26T02:43:27.775Z,2.20
2023-03-26T02:48:49.161Z,2.15
2023-03-26T02:54:16.143Z,2.05
2023-03-26T02:59:49.381Z,1.95
2023-03-26T03:05:29.292Z,2.40
2023-03-26T03:11:13.112Z,2.20
2023-03-26T03:16:41.150Z,2.20
2023-03-26T03:22:06.296Z,2.20
2023-03-26T03:27:29.031Z,1.80
2023-03-26T03:33:02.572Z,1.63
2023-03-26T03:38:24.878Z,2.58
2023-03-26T03:43:48.168Z,2.55
2023-03-26T03:49:14.763Z,3.72
2023-03-26T03:54:36.372Z,2.08
2023-03-26T04:00:07.545Z,2.20
2023-03-26T04:05:36.274Z,2.33
2023-03-26T04:10:57.718Z,1.75
2023-03-26T04:16:39.296Z,2.38
2023-03-26T04:22:01.570Z,2.28
2023-03-26T04:33:04.380Z,2.38
2023-03-26T04:38:45.118Z,2.70
2023-03-26T04:44:08.552Z,2.47
2023-03-26T04:49:55.118Z,2.50
2023-03-26T04:55:45.250Z,2.63
2023-03-26T05:01:15.322Z,2.75
2023-03-26T05:06:42.954Z,2.25
2023-03-26T05:12:15.194Z,2.40
2023-03-26T05:17:51.435Z,2.50
2023-03-26T05:23:21.688Z,2.40
2023-03-26T05:28:49.103Z,2.78
2023-03-26T05:34:30.388Z,2.25
2023-03-26T05:39:55.665Z,2.28
2023-03-26T05:45:39.119Z,2.15
2023-03-26T05:51:18.277Z,2.15
2023-03-26T05:56:51.556Z,2.40
2023-03-26T06:02:42.459Z,2.33
2023-03-26T06:08:18.519Z,2.40
2023-03-26T06:13:45.859Z,2.30
2023-03-26T06:19:07.409Z,2.38
2023-03-26T06:24:47.904Z,2.63
2023-03-26T06:30:33.627Z,2.30
2023-03-26T06:36:01.928Z,1.90
2023-03-26T06:41:24.293Z,2.92
2023-03-26T06:47:08.525Z,2.58
2023-03-26T06:52:44.763Z,2.47
2023-03-26T06:58:24.690Z,2.35
2023-03-26T07:04:04.787Z,2.00
2023-03-26T07:09:45.261Z,1.63
2023-03-26T07:15:25.463Z,2.00
2023-03-26T07:21:16.183Z,2.13
2023-03-26T07:27:36.024Z,2.67
2023-03-26T07:33:18.625Z,2.13
2023-03-26T07:38:58.453Z,1.98
2023-03-26T07:44:53.607Z,3.25
2023-03-26T07:50:33.987Z,2.37
2023-03-26T07:56:14.674Z,2.08
2023-03-26T08:02:42.185Z,2.10
2023-03-26T08:09:02.908Z,1.73
2023-03-26T08:15:13.442Z,2.70
2023-03-26T08:20:48.017Z,2.20
2023-03-26T08:31:37.063Z,1.73
2023-03-26T08:36:58.392Z,2.05
2023-03-26T08:42:25.840Z,1.88
2023-03-26T08:48:22.850Z,2.00
2023-03-26T08:53:52.930Z,1.55
2023-03-26T08:59:55.842Z,2.00
2023-03-26T09:06:09.640Z,1.50
2023-03-26T09:12:06.184Z,1.73
2023-03-26T09:18:18.176Z,1.55
2023-03-26T09:24:07.068Z,1.63
2023-03-26T09:29:59.562Z,2.42
2023-03-26T09:35:42.044Z,1.75
2023-03-26T09:41:36.761Z,2.30
2023-03-26T09:47:19.902Z,1.90
2023-03-26T09:53:32.649Z,2.47
2023-03-26T09:59:31.820Z,1.90
2023-03-26T10:05:24.039Z,2.17
2023-03-26T10:11:21.435Z,1.58
2023-03-26T10:17:15.471Z,1.48
2023-03-26T10:23:19.605Z,1.83
2023-03-26T10:28:53.020Z,1.70
2023-03-26T10:34:38.365Z,1.30
2023-03-26T10:40:24.307Z,1.50
2023-03-26T10:45:48.660Z,1.55
2023-03-26T10:51:28.160Z,2.20
2023-03-26T10:56:53.036Z,1.60
2023-03-26T11:02:38.710Z,1.55
2023-03-26T11:08:18.959Z,1.67
2023-03-26T11:14:02.981Z,1.83
2023-03-26T11:19:53.184Z,1.48
2023-03-26T11:26:10.715Z,1.48
2023-03-26T11:32:01.621Z,2.13
2023-03-26T11:37:41.720Z,1.35
2023-03-26T11:43:08.286Z,1.40
2023-03-26T11:48:45.349Z,1.58
2023-03-26T11:54:10.917Z,1.92
2023-03-26T12:00:02.170Z,1.80
2023-03-26T12:05:51.003Z,2.08
2023-03-26T12:11:12.915Z,1.77
2023-03-26T12:16:35.061Z,1.83
2023-03-26T12:21:56.187Z,1.48
2023-03-26T12:27:18.642Z,1.95
2023-03-26T12:32:46.184Z,1.80
2023-03-26T12:38:32.744Z,1.60
2023-03-26T12:44:51.503Z,1.80
2023-03-26T12:49:36.799Z,1.48
2023-03-26T12:55:22.482Z,1.40
2023-03-26T13:01:19.497Z,1.73
2023-03-26T13:07:03.263Z,1.83
2023-03-26T13:12:55.510Z,1.45
2023-03-26T13:18:41.689Z,1.60
2023-03-26T13:24:44.631Z,1.23
2023-03-26T13:30:37.829Z,1.30
2023-03-26T13:36:23.718Z,2.00
2023-03-26T13:42:43.471Z,1.30
2023-03-26T13:48:32.829Z,1.30
2023-03-26T13:54:16.089Z,1.52
2023-03-26T14:00:01.227Z,1.40
2023-03-26T14:05:39.795Z,1.20
2023-03-26T14:11:34.317Z,1.27
2023-03-26T14:17:04.974Z,1.00
2023-03-26T14:22:50.575Z,1.60
2023-03-26T14:29:03.634Z,1.05
2023-03-26T14:35:23.606Z,0.95
2023-03-26T14:41:17.006Z,1.58
2023-03-26T14:47:07.345Z,1.48
2023-03-26T14:53:01.318Z,1.30
2023-03-26T14:58:41.302Z,1.60
2023-03-26T15:04:30.417Z,1.67
2023-03-26T15:10:15.143Z,1.35
2023-03-26T15:16:17.860Z,1.87
2023-03-26T15:22:14.567Z,1.85
2023-03-26T15:27:57.545Z,1.40
2023-03-26T15:33:33.717Z,1.40
2023-03-26T15:39:25.832Z,1.33
2023-03-26T15:45:28.944Z,1.20
2023-03-26T15:51:24.789Z,0.90
2023-03-26T15:57:18.931Z,1.30
2023-03-26T16:02:45.988Z,1.00
2023-03-26T16:08:25.890Z,1.88
2023-03-26T16:14:09.885Z,1.52
2023-03-26T16:19:59.893Z,1.67
2023-03-26T16:25:28.900Z,1.20
2023-03-26T16:31:38.195Z,1.38
2023-03-26T16:37:01.263Z,1.25
2023-03-26T16:42:38.544Z,1.45
2023-03-26T16:48:35.062Z,1.73
2023-03-26T16:54:43.807Z,1.42
2023-03-26T17:00:11.212Z,1.20
2023-03-26T17:06:06.159Z,1.90
2023-03-26T17:12:00.614Z,1.55
2023-03-26T17:17:37.628Z,1.65
2023-03-26T17:23:20.137Z,1.90
2023-03-26T17:29:20.721Z,1.10
2023-03-26T17:34:50.998Z,1.13
2023-03-26T17:40:56.696Z,1.25
2023-03-26T17:46:27.241Z,1.30
2023-03-26T17:52:01.884Z,0.95
2023-03-26T17:57:49.792Z,0.90
2023-03-26T18:03:23.425Z,1.45
2023-03-26T18:08:50.278Z,2.05
2023-03-26T18:14:39.372Z,1.13
2023-03-26T18:20:06.708Z,1.40
2023-03-26T18:25:32.292Z,1.08
2023-03-26T18:30:53.722Z,1.20
2023-03-26T18:36:17.026Z,1.17
2023-03-26T18:41:40.514Z,1.70
2023-03-26T18:47:06.598Z,1.37
2023-03-26T18:52:29.655Z,1.20
2023-03-26T18:57:51.216Z,2.00
2023-03-26T19:03:15.034Z,1.70
2023-03-26T19:08:39.531Z,1.30
2023-03-26T19:14:08.264Z,1.05
2023-03-26T19:19:36.827Z,1.88
2023-03-26T19:25:04.055Z,1.60
2023-03-26T19:30:35.201Z,1.45
2023-03-26T19:36:26.478Z,1.92
2023-03-26T19:41:52.249Z,1.25
2023-03-26T19:47:17.739Z,1.70
2023-03-26T19:52:39.012Z,1.35
2023-03-26T19:58:00.418Z,1.40
2023-03-26T20:03:30.101Z,2.70
2023-03-26T20:08:52.141Z,1.60
2023-03-26T20:14:18.984Z,1.58
2023-03-26T20:19:41.061Z,1.30
2023-03-26T20:25:02.270Z,1.40
2023-03-26T20:30:37.004Z,2.20
2023-03-26T20:35:59.813Z,1.52
2023-03-26T20:41:24.265Z,1.77
2023-03-26T20:46:47.813Z,1.13
2023-03-26T20:52:11.531Z,1.50
2023-03-26T20:57:32.812Z,1.40
2023-03-26T21:02:57.840Z,1.10
2023-03-26T21:08:20.718Z,1.35
2023-03-26T21:13:56.017Z,1.42
2023-03-26T21:19:18.147Z,1.48
2023-03-26T21:24:58.293Z,1.50
2023-03-26T21:30:20.308Z,1.20
2023-03-26T21:35:42.192Z,1.35
2023-03-26T21:41:04.619Z,1.35
2023-03-26T21:46:26.799Z,1.30
2023-03-26T21:51:48.243Z,1.70
2023-03-26T21:57:33.693Z,1.98
2023-03-26T22:03:32.851Z,1.45
2023-03-26T22:08:54.606Z,1.90
2023-03-26T22:14:16.170Z,1.88
2023-03-26T22:19:37.709Z,1.83
2023-03-26T22:24:59.086Z,2.05
2023-03-26T22:35:44.891Z,1.65
2023-03-26T22:41:06.604Z,1.65
2023-03-26T22:46:28.166Z,1.48
2023-03-26T22:51:49.559Z,1.40
2023-03-26T22:57:10.979Z,1.83
2023-03-26T23:02:32.593Z,1.50
2023-03-26T23:07:54.154Z,1.05
2023-03-26T23:13:15.490Z,1.10
2023-03-26T23:18:37.093Z,0.90
2023-03-26T23:23:58.771Z,1.10
2023-03-26T23:29:20.214Z,1.40
2023-03-26T23:34:41.507Z,1.23
2023-03-26T23:40:16.824Z,1.13
2023-03-26T23:45:38.788Z,1.30
2023-03-26T23:51:03.445Z,1.40
2023-03-26T23:56:26.105Z,1.40
